Bookmark and Share
Track history (hours):
 

Napoli Jet

Last reported at 2014-Apr-16 04:33 UTC. Time now 2014-Apr-16 05:14 UTC.
Position N 40°38' E 014°23'.

Length 41 m; draft 1.3 m.

Type: Ship. MMSI: 247051400.

NotesDate/timePositionNaut miles runAvg speedWind from/ knotsBaromVisibWave heightAir tempDewpointWater temp
2014-Apr-16 04:33N 40°38' E 014°23'0 0.0
2014-Apr-15 17:22N 40°38' E 014°23'0 0.0
2014-Apr-15 03:34N 40°38' E 014°23'7 0.5
2014-Apr-14 14:34N 40°43' E 014°18'10 9.7
2014-Apr-14 13:34N 40°34' E 014°15'1 0.5
2014-Apr-14 11:34N 40°33' E 014°14'0 0.0
2014-Apr-14 10:33N 40°33' E 014°14'0 0.0
2014-Apr-14 08:33N 40°33' E 014°14'0 0.0
2014-Apr-14 06:33N 40°33' E 014°14'8 0.6
2014-Apr-13 17:05N 40°38' E 014°23'13 7.1
2014-Apr-13 15:14N 40°50' E 014°17'1624.2
2014-Apr-13 14:33N 40°34' E 014°15'0 0.4
2014-Apr-13 13:33N 40°34' E 014°15'16 7.4
2014-Apr-13 11:22N 40°50' E 014°17'1720.6
2014-Apr-13 10:33N 40°33' E 014°14'0 0.0
2014-Apr-13 09:33N 40°33' E 014°14'0 0.0
2014-Apr-13 08:32N 40°33' E 014°14'10 3.4
2014-Apr-13 05:33N 40°42' E 014°21'5 4.6
2014-Apr-13 04:32N 40°38' E 014°23'0 0.0
2014-Apr-12 17:07N 40°38' E 014°23'13 7.6
2014-Apr-12 15:25N 40°50' E 014°17'1719.5
2014-Apr-12 14:33N 40°33' E 014°14'17 5.4
2014-Apr-12 11:28N 40°50' E 014°16'1718.4
2014-Apr-12 10:33N 40°33' E 014°14'0 0.0
2014-Apr-12 09:33N 40°33' E 014°14'1612.3
2014-Apr-12 08:15N 40°49' E 014°17'1620.9
2014-Apr-12 07:29N 40°33' E 014°14'10 5.1
2014-Apr-12 05:32N 40°42' E 014°21'4 0.3
2014-Apr-11 17:04N 40°38' E 014°23'6 4.1
2014-Apr-11 15:33N 40°43' E 014°18'6 6.1
2014-Apr-11 14:33N 40°38' E 014°23'8 7.7
2014-Apr-11 13:33N 40°33' E 014°14'17 7.8
2014-Apr-11 11:25N 40°50' E 014°16'1718.5
2014-Apr-11 10:30N 40°33' E 014°14'0 0.0
2014-Apr-11 09:33N 40°33' E 014°14'1713.2
2014-Apr-11 08:17N 40°50' E 014°17'1722.7
2014-Apr-11 07:33N 40°33' E 014°14'10 4.9
2014-Apr-11 05:33N 40°42' E 014°21'4 4.2
2014-Apr-11 04:33N 40°38' E 014°23'0 0.0
2014-Apr-10 17:07N 40°38' E 014°23'5 3.4
2014-Apr-10 15:34N 40°42' E 014°18'5 5.3
2014-Apr-10 14:33N 40°38' E 014°23'8 7.6
2014-Apr-10 13:33N 40°33' E 014°14'17 7.6
2014-Apr-10 11:23N 40°50' E 014°17'1720.2
2014-Apr-10 10:33N 40°33' E 014°14'0 0.0
2014-Apr-10 09:33N 40°33' E 014°14'1713.1
2014-Apr-10 08:17N 40°50' E 014°17'1723.0
2014-Apr-10 07:33N 40°33' E 014°14'8 0.5
2014-Apr-09 17:08N 40°38' E 014°23'5 3.3
2014-Apr-09 15:33N 40°40' E 014°16'5 5.2
2014-Apr-09 14:33N 40°38' E 014°23'8 7.7
2014-Apr-09 13:34N 40°33' E 014°14'10 1.3
2014-Apr-09 05:33N 40°42' E 014°21'5 4.6
2014-Apr-09 04:32N 40°38' E 014°23'0 0.0
2014-Apr-08 17:07N 40°38' E 014°23'13 7.6
2014-Apr-08 15:24N 40°50' E 014°16'1719.9
2014-Apr-08 14:33N 40°33' E 014°14'17 7.8
2014-Apr-08 12:25N 40°50' E 014°17'1719.3
2014-Apr-08 11:33N 40°33' E 014°14'0 0.1
2014-Apr-08 10:33N 40°33' E 014°14'1714.0
2014-Apr-08 09:22N 40°50' E 014°16'1719.6
2014-Apr-08 08:30N 40°33' E 014°14'13 6.4
2014-Apr-08 06:33N 40°45' E 014°19'8 8.1
2014-Apr-08 05:33N 40°38' E 014°23'0 0.0
2014-Apr-07 17:08N 40°38' E 014°23'13 8.1
2014-Apr-07 15:29N 40°50' E 014°16'0 0.3
2014-Apr-07 14:33N 40°50' E 014°16'0 0.0
2014-Apr-07 13:09N 40°50' E 014°16'0 0.0
2014-Apr-07 12:06N 40°50' E 014°16'  

Dump ship's entire track history

sailing weather and tide predictions

Napoli Jet — IQTJ — position and weather